Aviation Digital Data Service (ADDS)

Output produced by METARs form (1513 UTC 20 March 2019)
found at http://www.aviationweather.gov/metar/data/
 
Forecast for: SBFI (FOZ DO IGUACU AR, BR)
Text: TAF SBFI 200900Z 2012/2112 18005KT 9999 FEW030 FEW035TCU TX34/2018Z T N20/2109Z
Forecast period: 1200 UTC 20 March 2019 to 1200 UTC 21 March 2019
Forecast type: FROM: standard forecast or significant change
Winds: from the S (180 degrees) at 6 MPH (5 knots; 2.6 m/s)
Visibility: 6 or more miles 10+ km)
Ceiling: at least 12,000 feet AGL
Clouds: few clouds at 3000 feet AGL
few clouds at 3500 feet AGL
Weather: no significant weather forecast for this period
Text: PROB30
Forecast period: 1200 to 1400 UTC 20 March 2019
Forecast type: TEMPORARY: The following changes expected for less than half the time period
Visibility: 5 miles (8 km)
Ceiling: 2000 feet AGL
Clouds: broken clouds at 2000 feet AGL
few clouds at 3000 feet AGL
Weather: TSRA  (rain associated with thunderstorm(s))
Text: TEMPO 2012/2014 8000 TSRA BKN020 FEW030CB
Forecast period: 0000 to 1200 UTC 21 March 2019
Forecast type: BECOMING: Conditions expected to become as follows by 0200 UTC 21 March 2019
Winds: from the SSW (200 degrees) at 9 MPH (8 knots; 4.1 m/s)
Visibility: 6 or more miles 10+ km)
Ceiling: 1500 feet AGL
Clouds: broken clouds at 1500 feet AGL
Weather: no significant weather forecast for this period